sensor_id;sensor_type;location;lat;lon;timestamp;temperature;humidity
3134;DHT22;1577;49.912;10.924;2023-03-23T00:01:31;13.20;99.90
3134;DHT22;1577;49.912;10.924;2023-03-23T00:04:02;13.10;99.90
3134;DHT22;1577;49.912;10.924;2023-03-23T00:06:28;13.20;99.90
3134;DHT22;1577;49.912;10.924;2023-03-23T00:09:00;13.10;99.90
3134;DHT22;1577;49.912;10.924;2023-03-23T00:11:28;13.10;99.90
3134;DHT22;1577;49.912;10.924;2023-03-23T00:13:56;13.10;99.90
3134;DHT22;1577;49.912;10.924;2023-03-23T00:16:24;13.00;99.90
3134;DHT22;1577;49.912;10.924;2023-03-23T00:19:09;13.00;99.90
3134;DHT22;1577;49.912;10.924;2023-03-23T00:21:39;12.90;99.90
3134;DHT22;1577;49.912;10.924;2023-03-23T00:24:16;12.90;99.90
3134;DHT22;1577;49.912;10.924;2023-03-23T00:26:43;12.80;99.90
3134;DHT22;1577;49.912;10.924;2023-03-23T00:31:40;12.70;99.90
3134;DHT22;1577;49.912;10.924;2023-03-23T00:34:06;12.70;99.90
3134;DHT22;1577;49.912;10.924;2023-03-23T00:36:33;12.60;99.90
3134;DHT22;1577;49.912;10.924;2023-03-23T00:39:02;12.60;99.90
3134;DHT22;1577;49.912;10.924;2023-03-23T00:41:30;12.50;99.90
3134;DHT22;1577;49.912;10.924;2023-03-23T00:43:58;12.50;99.90
3134;DHT22;1577;49.912;10.924;2023-03-23T00:46:26;12.40;99.90
3134;DHT22;1577;49.912;10.924;2023-03-23T00:48:54;12.40;99.90
3134;DHT22;1577;49.912;10.924;2023-03-23T00:51:23;12.40;99.90
3134;DHT22;1577;49.912;10.924;2023-03-23T00:53:49;12.30;99.90
3134;DHT22;1577;49.912;10.924;2023-03-23T00:56:15;12.30;99.90
3134;DHT22;1577;49.912;10.924;2023-03-23T00:58:41;12.30;99.90
3134;DHT22;1577;49.912;10.924;2023-03-23T01:01:06;12.30;99.90
3134;DHT22;1577;49.912;10.924;2023-03-23T01:03:33;12.30;99.90
3134;DHT22;1577;49.912;10.924;2023-03-23T01:06:05;12.30;99.90
3134;DHT22;1577;49.912;10.924;2023-03-23T01:08:31;12.30;99.90
3134;DHT22;1577;49.912;10.924;2023-03-23T01:11:03;12.30;99.90
3134;DHT22;1577;49.912;10.924;2023-03-23T01:13:29;12.30;99.90
3134;DHT22;1577;49.912;10.924;2023-03-23T01:15:54;12.30;99.90
3134;DHT22;1577;49.912;10.924;2023-03-23T01:18:20;12.30;99.90
3134;DHT22;1577;49.912;10.924;2023-03-23T01:20:45;12.30;99.90
3134;DHT22;1577;49.912;10.924;2023-03-23T01:23:11;12.20;99.90
3134;DHT22;1577;49.912;10.924;2023-03-23T01:25:39;12.20;99.90
3134;DHT22;1577;49.912;10.924;2023-03-23T01:28:05;12.30;99.90
3134;DHT22;1577;49.912;10.924;2023-03-23T01:30:31;12.30;99.90
3134;DHT22;1577;49.912;10.924;2023-03-23T01:32:56;12.30;99.90
3134;DHT22;1577;49.912;10.924;2023-03-23T01:35:22;12.30;99.90
3134;DHT22;1577;49.912;10.924;2023-03-23T01:37:48;12.20;99.90
3134;DHT22;1577;49.912;10.924;2023-03-23T01:40:17;12.30;99.90
3134;DHT22;1577;49.912;10.924;2023-03-23T01:42:43;12.40;99.90
3134;DHT22;1577;49.912;10.924;2023-03-23T01:45:21;12.30;99.90
3134;DHT22;1577;49.912;10.924;2023-03-23T01:48:09;12.30;99.90
3134;DHT22;1577;49.912;10.924;2023-03-23T01:51:30;12.40;99.90
3134;DHT22;1577;49.912;10.924;2023-03-23T01:53:56;12.40;99.90
3134;DHT22;1577;49.912;10.924;2023-03-23T01:56:25;12.30;99.90
3134;DHT22;1577;49.912;10.924;2023-03-23T01:58:53;12.30;99.90
3134;DHT22;1577;49.912;10.924;2023-03-23T02:01:21;12.30;99.90
3134;DHT22;1577;49.912;10.924;2023-03-23T02:03:47;12.30;99.90
3134;DHT22;1577;49.912;10.924;2023-03-23T02:06:14;12.30;99.90
3134;DHT22;1577;49.912;10.924;2023-03-23T02:08:43;12.40;99.90
3134;DHT22;1577;49.912;10.924;2023-03-23T02:11:22;12.40;99.90
3134;DHT22;1577;49.912;10.924;2023-03-23T02:13:49;12.40;99.90
3134;DHT22;1577;49.912;10.924;2023-03-23T02:29:50;12.40;99.90
3134;DHT22;1577;49.912;10.924;2023-03-23T02:35:17;12.50;99.90
3134;DHT22;1577;49.912;10.924;2023-03-23T02:37:51;12.50;99.90
3134;DHT22;1577;49.912;10.924;2023-03-23T02:40:39;12.50;99.90
3134;DHT22;1577;49.912;10.924;2023-03-23T02:43:08;12.60;99.90
3134;DHT22;1577;49.912;10.924;2023-03-23T02:45:36;12.60;99.90
3134;DHT22;1577;49.912;10.924;2023-03-23T02:48:04;12.60;99.90
3134;DHT22;1577;49.912;10.924;2023-03-23T02:50:31;12.60;99.90
3134;DHT22;1577;49.912;10.924;2023-03-23T02:52:59;12.60;99.90
3134;DHT22;1577;49.912;10.924;2023-03-23T02:55:27;12.70;99.90
3134;DHT22;1577;49.912;10.924;2023-03-23T02:57:54;12.70;99.90
3134;DHT22;1577;49.912;10.924;2023-03-23T03:00:20;12.70;99.90
3134;DHT22;1577;49.912;10.924;2023-03-23T03:02:49;12.70;99.90
3134;DHT22;1577;49.912;10.924;2023-03-23T03:10:42;12.80;99.90
3134;DHT22;1577;49.912;10.924;2023-03-23T03:18:42;12.90;99.90
3134;DHT22;1577;49.912;10.924;2023-03-23T03:21:12;12.90;99.90
3134;DHT22;1577;49.912;10.924;2023-03-23T03:23:41;12.80;99.90
3134;DHT22;1577;49.912;10.924;2023-03-23T03:26:10;12.80;99.90
3134;DHT22;1577;49.912;10.924;2023-03-23T03:28:37;12.80;99.90
3134;DHT22;1577;49.912;10.924;2023-03-23T03:31:04;12.80;99.90
3134;DHT22;1577;49.912;10.924;2023-03-23T03:33:31;12.80;99.90
3134;DHT22;1577;49.912;10.924;2023-03-23T03:36:03;12.70;99.90
3134;DHT22;1577;49.912;10.924;2023-03-23T03:38:29;12.70;99.90
3134;DHT22;1577;49.912;10.924;2023-03-23T03:41:05;12.70;99.90
3134;DHT22;1577;49.912;10.924;2023-03-23T03:43:31;12.70;99.90
3134;DHT22;1577;49.912;10.924;2023-03-23T03:45:56;12.70;99.90
3134;DHT22;1577;49.912;10.924;2023-03-23T03:48:25;12.70;99.90
3134;DHT22;1577;49.912;10.924;2023-03-23T03:50:51;12.70;99.90
3134;DHT22;1577;49.912;10.924;2023-03-23T03:53:17;12.70;99.90
3134;DHT22;1577;49.912;10.924;2023-03-23T03:55:43;12.70;99.90
3134;DHT22;1577;49.912;10.924;2023-03-23T03:58:10;12.60;99.90
3134;DHT22;1577;49.912;10.924;2023-03-23T04:00:36;12.70;99.90
3134;DHT22;1577;49.912;10.924;2023-03-23T04:03:01;12.60;99.90
3134;DHT22;1577;49.912;10.924;2023-03-23T04:05:27;12.60;99.90
3134;DHT22;1577;49.912;10.924;2023-03-23T04:07:56;12.60;99.90
3134;DHT22;1577;49.912;10.924;2023-03-23T04:10:27;12.60;99.90
3134;DHT22;1577;49.912;10.924;2023-03-23T04:12:53;12.60;99.90
3134;DHT22;1577;49.912;10.924;2023-03-23T04:15:18;12.60;99.90
3134;DHT22;1577;49.912;10.924;2023-03-23T04:17:44;12.60;99.90
3134;DHT22;1577;49.912;10.924;2023-03-23T04:20:10;12.50;99.90
3134;DHT22;1577;49.912;10.924;2023-03-23T04:22:44;12.60;99.90
3134;DHT22;1577;49.912;10.924;2023-03-23T04:25:13;12.50;99.90
3134;DHT22;1577;49.912;10.924;2023-03-23T04:27:40;12.50;99.90
3134;DHT22;1577;49.912;10.924;2023-03-23T04:30:10;12.50;99.90
3134;DHT22;1577;49.912;10.924;2023-03-23T04:32:37;12.40;99.90
3134;DHT22;1577;49.912;10.924;2023-03-23T04:35:08;12.40;99.90
3134;DHT22;1577;49.912;10.924;2023-03-23T04:37:34;12.40;99.90
3134;DHT22;1577;49.912;10.924;2023-03-23T04:40:00;12.40;99.90
3134;DHT22;1577;49.912;10.924;2023-03-23T04:42:30;12.40;99.90
3134;DHT22;1577;49.912;10.924;2023-03-23T04:44:57;12.40;99.90
3134;DHT22;1577;49.912;10.924;2023-03-23T04:47:24;12.40;99.90
3134;DHT22;1577;49.912;10.924;2023-03-23T04:49:50;12.40;99.90
3134;DHT22;1577;49.912;10.924;2023-03-23T04:52:17;12.40;99.90
3134;DHT22;1577;49.912;10.924;2023-03-23T04:54:43;12.40;99.90
3134;DHT22;1577;49.912;10.924;2023-03-23T04:57:09;12.40;99.90
3134;DHT22;1577;49.912;10.924;2023-03-23T04:59:35;12.40;99.90
3134;DHT22;1577;49.912;10.924;2023-03-23T05:02:02;12.40;99.90
3134;DHT22;1577;49.912;10.924;2023-03-23T05:04:27;12.50;99.90
3134;DHT22;1577;49.912;10.924;2023-03-23T05:06:53;12.50;99.90
3134;DHT22;1577;49.912;10.924;2023-03-23T05:09:19;12.50;99.90
3134;DHT22;1577;49.912;10.924;2023-03-23T05:11:45;12.50;99.90
3134;DHT22;1577;49.912;10.924;2023-03-23T05:14:10;12.60;99.90
3134;DHT22;1577;49.912;10.924;2023-03-23T05:16:36;12.60;99.90
3134;DHT22;1577;49.912;10.924;2023-03-23T05:19:03;12.60;99.90
3134;DHT22;1577;49.912;10.924;2023-03-23T05:21:30;12.60;99.90
3134;DHT22;1577;49.912;10.924;2023-03-23T05:23:55;12.60;99.90
3134;DHT22;1577;49.912;10.924;2023-03-23T05:26:22;12.60;99.90
3134;DHT22;1577;49.912;10.924;2023-03-23T05:28:49;12.60;99.90
3134;DHT22;1577;49.912;10.924;2023-03-23T05:31:18;12.60;99.90
3134;DHT22;1577;49.912;10.924;2023-03-23T05:33:44;12.70;99.90
3134;DHT22;1577;49.912;10.924;2023-03-23T05:36:11;12.70;99.90
3134;DHT22;1577;49.912;10.924;2023-03-23T05:38:39;12.70;99.90
3134;DHT22;1577;49.912;10.924;2023-03-23T05:41:07;12.70;99.90
3134;DHT22;1577;49.912;10.924;2023-03-23T05:43:33;12.70;99.90
3134;DHT22;1577;49.912;10.924;2023-03-23T05:45:59;12.80;99.90
3134;DHT22;1577;49.912;10.924;2023-03-23T05:48:25;12.80;99.90
3134;DHT22;1577;49.912;10.924;2023-03-23T05:50:51;12.70;99.90
3134;DHT22;1577;49.912;10.924;2023-03-23T05:53:17;12.80;99.90
3134;DHT22;1577;49.912;10.924;2023-03-23T05:55:42;12.80;99.90
3134;DHT22;1577;49.912;10.924;2023-03-23T05:58:08;12.80;99.90
3134;DHT22;1577;49.912;10.924;2023-03-23T06:00:34;12.90;99.90
3134;DHT22;1577;49.912;10.924;2023-03-23T06:03:00;12.90;99.90
3134;DHT22;1577;49.912;10.924;2023-03-23T06:05:26;12.90;99.90
3134;DHT22;1577;49.912;10.924;2023-03-23T06:07:53;13.00;99.90
3134;DHT22;1577;49.912;10.924;2023-03-23T06:10:19;13.00;99.90
3134;DHT22;1577;49.912;10.924;2023-03-23T06:12:44;13.00;99.90
3134;DHT22;1577;49.912;10.924;2023-03-23T06:15:11;13.10;99.90
3134;DHT22;1577;49.912;10.924;2023-03-23T06:17:37;13.10;99.90
3134;DHT22;1577;49.912;10.924;2023-03-23T06:20:06;13.10;99.90
3134;DHT22;1577;49.912;10.924;2023-03-23T06:22:36;13.20;99.90
3134;DHT22;1577;49.912;10.924;2023-03-23T06:25:06;13.20;99.90
3134;DHT22;1577;49.912;10.924;2023-03-23T06:27:33;13.20;99.90
3134;DHT22;1577;49.912;10.924;2023-03-23T06:29:58;13.30;99.90
3134;DHT22;1577;49.912;10.924;2023-03-23T06:32:25;13.30;99.90
3134;DHT22;1577;49.912;10.924;2023-03-23T06:34:52;13.30;99.90
3134;DHT22;1577;49.912;10.924;2023-03-23T06:37:18;13.30;99.90
3134;DHT22;1577;49.912;10.924;2023-03-23T06:39:44;13.30;99.90
3134;DHT22;1577;49.912;10.924;2023-03-23T06:42:10;13.30;99.90
3134;DHT22;1577;49.912;10.924;2023-03-23T06:44:38;13.30;99.90
3134;DHT22;1577;49.912;10.924;2023-03-23T06:47:04;13.30;99.90
3134;DHT22;1577;49.912;10.924;2023-03-23T06:49:30;13.40;99.90
3134;DHT22;1577;49.912;10.924;2023-03-23T06:51:57;13.40;99.90
3134;DHT22;1577;49.912;10.924;2023-03-23T06:54:23;13.30;99.90
3134;DHT22;1577;49.912;10.924;2023-03-23T06:56:48;13.30;99.90
3134;DHT22;1577;49.912;10.924;2023-03-23T06:59:14;13.20;99.90
3134;DHT22;1577;49.912;10.924;2023-03-23T13:37:51;15.50;99.90
3134;DHT22;1577;49.912;10.924;2023-03-23T13:40:25;15.50;99.90
3134;DHT22;1577;49.912;10.924;2023-03-23T13:42:57;15.40;99.90
3134;DHT22;1577;49.912;10.924;2023-03-23T13:45:45;15.40;99.90
3134;DHT22;1577;49.912;10.924;2023-03-23T13:50:58;15.50;99.90
3134;DHT22;1577;49.912;10.924;2023-03-23T13:53:29;15.60;99.90
3134;DHT22;1577;49.912;10.924;2023-03-23T13:58:31;15.90;99.90
3134;DHT22;1577;49.912;10.924;2023-03-23T14:01:13;16.00;99.90
3134;DHT22;1577;49.912;10.924;2023-03-23T14:03:43;16.10;99.90
3134;DHT22;1577;49.912;10.924;2023-03-23T14:06:19;16.10;99.90
3134;DHT22;1577;49.912;10.924;2023-03-23T14:08:49;16.10;99.90
3134;DHT22;1577;49.912;10.924;2023-03-23T14:11:22;16.10;99.90
3134;DHT22;1577;49.912;10.924;2023-03-23T14:14:06;16.20;99.90
3134;DHT22;1577;49.912;10.924;2023-03-23T14:16:38;16.30;99.90
3134;DHT22;1577;49.912;10.924;2023-03-23T14:19:18;16.30;99.90
3134;DHT22;1577;49.912;10.924;2023-03-23T14:21:57;16.40;99.90
3134;DHT22;1577;49.912;10.924;2023-03-23T14:24:27;16.40;99.90
3134;DHT22;1577;49.912;10.924;2023-03-23T14:29:33;16.30;99.90
3134;DHT22;1577;49.912;10.924;2023-03-23T14:31:59;16.20;99.90
3134;DHT22;1577;49.912;10.924;2023-03-23T14:34:29;16.30;99.90
3134;DHT22;1577;49.912;10.924;2023-03-23T14:36:56;16.20;99.90
3134;DHT22;1577;49.912;10.924;2023-03-23T14:39:26;16.20;99.90
3134;DHT22;1577;49.912;10.924;2023-03-23T14:41:55;16.10;99.90
3134;DHT22;1577;49.912;10.924;2023-03-23T14:44:27;16.00;99.90
3134;DHT22;1577;49.912;10.924;2023-03-23T14:46:55;16.00;99.90
3134;DHT22;1577;49.912;10.924;2023-03-23T14:49:30;16.00;99.90
3134;DHT22;1577;49.912;10.924;2023-03-23T14:52:12;15.90;99.90
3134;DHT22;1577;49.912;10.924;2023-03-23T14:54:39;15.80;99.90
3134;DHT22;1577;49.912;10.924;2023-03-23T14:57:26;15.70;99.90
3134;DHT22;1577;49.912;10.924;2023-03-23T14:59:52;15.60;99.90
3134;DHT22;1577;49.912;10.924;2023-03-23T15:04:53;15.50;99.90
3134;DHT22;1577;49.912;10.924;2023-03-23T15:07:20;15.40;99.90
3134;DHT22;1577;49.912;10.924;2023-03-23T15:09:46;15.30;99.90
3134;DHT22;1577;49.912;10.924;2023-03-23T15:12:30;15.30;99.90
3134;DHT22;1577;49.912;10.924;2023-03-23T15:15:02;15.20;99.90
3134;DHT22;1577;49.912;10.924;2023-03-23T15:17:30;15.20;99.90
3134;DHT22;1577;49.912;10.924;2023-03-23T15:19:56;15.10;99.90
3134;DHT22;1577;49.912;10.924;2023-03-23T15:22:30;15.10;99.90
3134;DHT22;1577;49.912;10.924;2023-03-23T15:25:17;15.10;99.90
3134;DHT22;1577;49.912;10.924;2023-03-23T15:27:48;15.10;99.90
3134;DHT22;1577;49.912;10.924;2023-03-23T15:33:04;15.20;99.90
3134;DHT22;1577;49.912;10.924;2023-03-23T15:35:35;15.20;99.90
3134;DHT22;1577;49.912;10.924;2023-03-23T15:38:12;15.10;99.90
3134;DHT22;1577;49.912;10.924;2023-03-23T15:40:39;15.10;99.90
3134;DHT22;1577;49.912;10.924;2023-03-23T15:45:54;15.00;99.90
3134;DHT22;1577;49.912;10.924;2023-03-23T15:48:22;15.00;99.90
3134;DHT22;1577;49.912;10.924;2023-03-23T15:50:49;15.00;99.90
3134;DHT22;1577;49.912;10.924;2023-03-23T15:53:23;15.00;99.90
3134;DHT22;1577;49.912;10.924;2023-03-23T15:55:51;14.90;99.90
3134;DHT22;1577;49.912;10.924;2023-03-23T15:58:16;14.90;99.90
3134;DHT22;1577;49.912;10.924;2023-03-23T16:00:43;14.90;99.90
3134;DHT22;1577;49.912;10.924;2023-03-23T16:03:15;14.90;99.90
3134;DHT22;1577;49.912;10.924;2023-03-23T16:05:42;15.00;99.90
3134;DHT22;1577;49.912;10.924;2023-03-23T16:08:10;15.00;99.90
3134;DHT22;1577;49.912;10.924;2023-03-23T16:10:36;15.00;99.90
3134;DHT22;1577;49.912;10.924;2023-03-23T16:13:01;15.00;99.90
3134;DHT22;1577;49.912;10.924;2023-03-23T16:15:27;15.00;99.90
3134;DHT22;1577;49.912;10.924;2023-03-23T16:17:52;14.90;99.90
3134;DHT22;1577;49.912;10.924;2023-03-23T16:20:20;15.00;99.90
3134;DHT22;1577;49.912;10.924;2023-03-23T16:22:46;15.00;99.90
3134;DHT22;1577;49.912;10.924;2023-03-23T16:25:12;14.90;99.90
3134;DHT22;1577;49.912;10.924;2023-03-23T16:27:39;14.90;99.90
3134;DHT22;1577;49.912;10.924;2023-03-23T16:30:20;14.90;99.90
3134;DHT22;1577;49.912;10.924;2023-03-23T16:32:46;14.90;99.90
3134;DHT22;1577;49.912;10.924;2023-03-23T16:35:13;14.90;99.90
3134;DHT22;1577;49.912;10.924;2023-03-23T16:37:43;14.80;99.90
3134;DHT22;1577;49.912;10.924;2023-03-23T16:40:11;14.80;99.90
3134;DHT22;1577;49.912;10.924;2023-03-23T16:42:36;14.80;99.90
3134;DHT22;1577;49.912;10.924;2023-03-23T16:45:02;14.80;99.90
3134;DHT22;1577;49.912;10.924;2023-03-23T16:47:28;14.70;99.90
3134;DHT22;1577;49.912;10.924;2023-03-23T16:49:53;14.70;99.90
3134;DHT22;1577;49.912;10.924;2023-03-23T16:52:19;14.70;99.90
3134;DHT22;1577;49.912;10.924;2023-03-23T16:54:46;14.70;99.90
3134;DHT22;1577;49.912;10.924;2023-03-23T16:57:11;14.70;99.90
3134;DHT22;1577;49.912;10.924;2023-03-23T16:59:37;14.70;99.90
3134;DHT22;1577;49.912;10.924;2023-03-23T17:02:03;14.70;99.90
3134;DHT22;1577;49.912;10.924;2023-03-23T17:04:29;14.70;99.90
3134;DHT22;1577;49.912;10.924;2023-03-23T17:06:56;14.70;99.90
3134;DHT22;1577;49.912;10.924;2023-03-23T17:09:26;14.70;99.90
3134;DHT22;1577;49.912;10.924;2023-03-23T17:11:54;14.60;99.90
3134;DHT22;1577;49.912;10.924;2023-03-23T17:14:23;14.60;99.90
3134;DHT22;1577;49.912;10.924;2023-03-23T17:16:51;14.60;99.90
3134;DHT22;1577;49.912;10.924;2023-03-23T17:19:21;14.60;99.90
3134;DHT22;1577;49.912;10.924;2023-03-23T17:21:49;14.50;99.90
3134;DHT22;1577;49.912;10.924;2023-03-23T17:24:16;14.50;99.90
3134;DHT22;1577;49.912;10.924;2023-03-23T17:26:42;14.50;99.90
3134;DHT22;1577;49.912;10.924;2023-03-23T17:29:07;14.50;99.90
3134;DHT22;1577;49.912;10.924;2023-03-23T17:31:33;14.50;99.90
3134;DHT22;1577;49.912;10.924;2023-03-23T17:33:59;14.50;99.90
3134;DHT22;1577;49.912;10.924;2023-03-23T17:36:25;14.40;99.90
3134;DHT22;1577;49.912;10.924;2023-03-23T17:38:51;14.40;99.90
3134;DHT22;1577;49.912;10.924;2023-03-23T17:41:17;14.40;99.90
3134;DHT22;1577;49.912;10.924;2023-03-23T17:43:45;14.40;99.90
3134;DHT22;1577;49.912;10.924;2023-03-23T17:46:11;14.40;99.90
3134;DHT22;1577;49.912;10.924;2023-03-23T17:48:36;14.40;99.90
3134;DHT22;1577;49.912;10.924;2023-03-23T17:51:02;14.40;99.90
3134;DHT22;1577;49.912;10.924;2023-03-23T17:53:29;14.40;99.90
3134;DHT22;1577;49.912;10.924;2023-03-23T17:55:56;14.40;99.90
3134;DHT22;1577;49.912;10.924;2023-03-23T17:58:22;14.40;99.90
3134;DHT22;1577;49.912;10.924;2023-03-23T18:00:50;14.40;99.90
3134;DHT22;1577;49.912;10.924;2023-03-23T18:03:16;14.40;99.90
3134;DHT22;1577;49.912;10.924;2023-03-23T18:05:42;14.40;99.90
3134;DHT22;1577;49.912;10.924;2023-03-23T18:08:08;14.40;99.90
3134;DHT22;1577;49.912;10.924;2023-03-23T18:10:36;14.40;99.90
3134;DHT22;1577;49.912;10.924;2023-03-23T18:13:03;14.30;99.90
3134;DHT22;1577;49.912;10.924;2023-03-23T18:15:29;14.40;99.90
3134;DHT22;1577;49.912;10.924;2023-03-23T18:18:00;14.40;99.90
3134;DHT22;1577;49.912;10.924;2023-03-23T18:20:28;14.30;99.90
3134;DHT22;1577;49.912;10.924;2023-03-23T18:22:54;14.30;99.90
3134;DHT22;1577;49.912;10.924;2023-03-23T18:25:20;14.30;99.90
3134;DHT22;1577;49.912;10.924;2023-03-23T18:27:46;14.30;99.90
3134;DHT22;1577;49.912;10.924;2023-03-23T18:30:11;14.30;99.90
3134;DHT22;1577;49.912;10.924;2023-03-23T18:32:38;14.30;99.90
3134;DHT22;1577;49.912;10.924;2023-03-23T18:35:05;14.30;99.90
3134;DHT22;1577;49.912;10.924;2023-03-23T18:37:31;14.20;99.90
3134;DHT22;1577;49.912;10.924;2023-03-23T18:39:57;14.20;99.90
3134;DHT22;1577;49.912;10.924;2023-03-23T18:42:23;14.20;99.90
3134;DHT22;1577;49.912;10.924;2023-03-23T18:44:49;14.10;99.90
3134;DHT22;1577;49.912;10.924;2023-03-23T18:47:14;14.10;99.90
3134;DHT22;1577;49.912;10.924;2023-03-23T18:49:40;14.10;99.90
3134;DHT22;1577;49.912;10.924;2023-03-23T18:52:06;14.10;99.90
3134;DHT22;1577;49.912;10.924;2023-03-23T18:54:32;14.10;99.90
3134;DHT22;1577;49.912;10.924;2023-03-23T18:57:00;14.10;99.90
3134;DHT22;1577;49.912;10.924;2023-03-23T18:59:26;14.00;99.90
3134;DHT22;1577;49.912;10.924;2023-03-23T19:01:55;14.00;99.90
3134;DHT22;1577;49.912;10.924;2023-03-23T19:04:21;14.00;99.90
3134;DHT22;1577;49.912;10.924;2023-03-23T19:06:48;14.00;99.90
3134;DHT22;1577;49.912;10.924;2023-03-23T19:09:14;13.90;99.90
3134;DHT22;1577;49.912;10.924;2023-03-23T19:11:40;13.90;99.90
3134;DHT22;1577;49.912;10.924;2023-03-23T19:14:06;13.90;99.90
3134;DHT22;1577;49.912;10.924;2023-03-23T19:16:33;13.90;99.90
3134;DHT22;1577;49.912;10.924;2023-03-23T19:19:01;13.80;99.90
3134;DHT22;1577;49.912;10.924;2023-03-23T19:21:27;13.80;99.90
3134;DHT22;1577;49.912;10.924;2023-03-23T19:23:53;13.80;99.90
3134;DHT22;1577;49.912;10.924;2023-03-23T19:26:30;13.80;99.90
3134;DHT22;1577;49.912;10.924;2023-03-23T19:28:56;13.70;99.90
3134;DHT22;1577;49.912;10.924;2023-03-23T19:31:23;13.70;99.90
3134;DHT22;1577;49.912;10.924;2023-03-23T19:33:53;13.70;99.90
3134;DHT22;1577;49.912;10.924;2023-03-23T19:36:22;13.70;99.90
3134;DHT22;1577;49.912;10.924;2023-03-23T19:38:49;13.60;99.90
3134;DHT22;1577;49.912;10.924;2023-03-23T19:41:15;13.60;99.90
3134;DHT22;1577;49.912;10.924;2023-03-23T19:43:41;13.60;99.90
3134;DHT22;1577;49.912;10.924;2023-03-23T19:46:10;13.60;99.90
3134;DHT22;1577;49.912;10.924;2023-03-23T19:48:36;13.60;99.90
3134;DHT22;1577;49.912;10.924;2023-03-23T19:51:03;13.60;99.90
3134;DHT22;1577;49.912;10.924;2023-03-23T19:53:29;13.50;99.90
3134;DHT22;1577;49.912;10.924;2023-03-23T19:55:55;13.50;99.90
3134;DHT22;1577;49.912;10.924;2023-03-23T19:58:21;13.50;99.90
3134;DHT22;1577;49.912;10.924;2023-03-23T20:00:48;13.50;99.90
3134;DHT22;1577;49.912;10.924;2023-03-23T20:03:15;13.60;99.90
3134;DHT22;1577;49.912;10.924;2023-03-23T20:05:44;13.50;99.90
3134;DHT22;1577;49.912;10.924;2023-03-23T20:08:12;13.60;99.90
3134;DHT22;1577;49.912;10.924;2023-03-23T20:10:40;13.60;99.90
3134;DHT22;1577;49.912;10.924;2023-03-23T20:13:10;13.60;99.90
3134;DHT22;1577;49.912;10.924;2023-03-23T20:15:35;13.50;99.90
3134;DHT22;1577;49.912;10.924;2023-03-23T20:18:01;13.50;99.90
3134;DHT22;1577;49.912;10.924;2023-03-23T20:20:27;13.50;99.90
3134;DHT22;1577;49.912;10.924;2023-03-23T20:22:53;13.40;99.90
3134;DHT22;1577;49.912;10.924;2023-03-23T20:25:18;13.40;99.90
3134;DHT22;1577;49.912;10.924;2023-03-23T20:27:44;13.40;99.90
3134;DHT22;1577;49.912;10.924;2023-03-23T20:30:10;13.40;99.90
3134;DHT22;1577;49.912;10.924;2023-03-23T20:32:36;13.40;99.90
3134;DHT22;1577;49.912;10.924;2023-03-23T20:35:07;13.40;99.90
3134;DHT22;1577;49.912;10.924;2023-03-23T20:37:37;13.40;99.90
3134;DHT22;1577;49.912;10.924;2023-03-23T20:40:04;13.40;99.90
3134;DHT22;1577;49.912;10.924;2023-03-23T20:42:33;13.40;99.90
3134;DHT22;1577;49.912;10.924;2023-03-23T20:44:59;13.40;99.90
3134;DHT22;1577;49.912;10.924;2023-03-23T20:47:25;13.40;99.90
3134;DHT22;1577;49.912;10.924;2023-03-23T20:49:53;13.30;99.90
3134;DHT22;1577;49.912;10.924;2023-03-23T20:52:21;13.30;99.90
3134;DHT22;1577;49.912;10.924;2023-03-23T20:54:47;13.40;99.90
3134;DHT22;1577;49.912;10.924;2023-03-23T20:57:13;13.30;99.90
3134;DHT22;1577;49.912;10.924;2023-03-23T20:59:40;13.30;99.90
3134;DHT22;1577;49.912;10.924;2023-03-23T21:02:05;13.40;99.90
3134;DHT22;1577;49.912;10.924;2023-03-23T21:04:32;13.40;99.90
3134;DHT22;1577;49.912;10.924;2023-03-23T21:06:57;13.40;99.90
3134;DHT22;1577;49.912;10.924;2023-03-23T21:09:24;13.30;99.90
3134;DHT22;1577;49.912;10.924;2023-03-23T21:11:50;13.20;99.90
3134;DHT22;1577;49.912;10.924;2023-03-23T21:14:15;13.30;99.90
3134;DHT22;1577;49.912;10.924;2023-03-23T21:16:41;13.20;99.90
3134;DHT22;1577;49.912;10.924;2023-03-23T21:19:08;13.20;99.90
3134;DHT22;1577;49.912;10.924;2023-03-23T21:21:34;13.20;99.90
3134;DHT22;1577;49.912;10.924;2023-03-23T21:23:59;13.20;99.90
3134;DHT22;1577;49.912;10.924;2023-03-23T21:26:27;13.20;99.90
3134;DHT22;1577;49.912;10.924;2023-03-23T21:28:53;13.20;99.90
3134;DHT22;1577;49.912;10.924;2023-03-23T21:31:20;13.20;99.90
3134;DHT22;1577;49.912;10.924;2023-03-23T21:33:47;13.20;99.90
3134;DHT22;1577;49.912;10.924;2023-03-23T21:36:13;13.20;99.90
3134;DHT22;1577;49.912;10.924;2023-03-23T21:38:39;13.10;99.90
3134;DHT22;1577;49.912;10.924;2023-03-23T21:41:07;13.10;99.90
3134;DHT22;1577;49.912;10.924;2023-03-23T21:43:33;13.10;99.90
3134;DHT22;1577;49.912;10.924;2023-03-23T21:45:59;13.10;99.90
3134;DHT22;1577;49.912;10.924;2023-03-23T21:48:28;13.20;99.90
3134;DHT22;1577;49.912;10.924;2023-03-23T21:50:54;13.10;99.90
3134;DHT22;1577;49.912;10.924;2023-03-23T21:53:20;13.20;99.90
3134;DHT22;1577;49.912;10.924;2023-03-23T21:55:48;13.20;99.90
3134;DHT22;1577;49.912;10.924;2023-03-23T21:58:20;13.10;99.90
3134;DHT22;1577;49.912;10.924;2023-03-23T22:00:46;13.10;99.90
3134;DHT22;1577;49.912;10.924;2023-03-23T22:03:14;13.10;99.90
3134;DHT22;1577;49.912;10.924;2023-03-23T22:05:43;13.20;99.90
3134;DHT22;1577;49.912;10.924;2023-03-23T22:08:09;13.20;99.90
3134;DHT22;1577;49.912;10.924;2023-03-23T22:10:40;13.20;99.90
3134;DHT22;1577;49.912;10.924;2023-03-23T22:13:06;13.20;99.90
3134;DHT22;1577;49.912;10.924;2023-03-23T22:15:32;13.10;99.90
3134;DHT22;1577;49.912;10.924;2023-03-23T22:17:58;13.10;99.90
3134;DHT22;1577;49.912;10.924;2023-03-23T22:20:23;13.10;99.90
3134;DHT22;1577;49.912;10.924;2023-03-23T22:22:50;13.10;99.90
3134;DHT22;1577;49.912;10.924;2023-03-23T22:25:16;13.10;99.90
3134;DHT22;1577;49.912;10.924;2023-03-23T22:27:42;13.00;99.90
3134;DHT22;1577;49.912;10.924;2023-03-23T22:30:09;13.00;99.90
3134;DHT22;1577;49.912;10.924;2023-03-23T22:32:35;13.00;99.90
3134;DHT22;1577;49.912;10.924;2023-03-23T22:35:01;12.90;99.90
3134;DHT22;1577;49.912;10.924;2023-03-23T22:37:27;12.90;99.90
3134;DHT22;1577;49.912;10.924;2023-03-23T22:39:53;12.90;99.90
3134;DHT22;1577;49.912;10.924;2023-03-23T22:42:19;12.90;99.90
3134;DHT22;1577;49.912;10.924;2023-03-23T22:44:44;13.00;99.90
3134;DHT22;1577;49.912;10.924;2023-03-23T22:47:10;13.00;99.90
3134;DHT22;1577;49.912;10.924;2023-03-23T22:49:36;12.90;99.90
3134;DHT22;1577;49.912;10.924;2023-03-23T22:52:02;13.00;99.90
3134;DHT22;1577;49.912;10.924;2023-03-23T22:54:27;13.00;99.90
3134;DHT22;1577;49.912;10.924;2023-03-23T22:56:53;13.00;99.90
3134;DHT22;1577;49.912;10.924;2023-03-23T22:59:19;13.00;99.90
3134;DHT22;1577;49.912;10.924;2023-03-23T23:01:44;13.00;99.90
3134;DHT22;1577;49.912;10.924;2023-03-23T23:04:10;13.00;99.90
3134;DHT22;1577;49.912;10.924;2023-03-23T23:06:36;13.00;99.90
3134;DHT22;1577;49.912;10.924;2023-03-23T23:09:02;13.00;99.90
3134;DHT22;1577;49.912;10.924;2023-03-23T23:11:28;12.90;99.90